Preview of NWS' New Version of Forecast
This preview is not operational and should not be used for support decisions.

Terminal Aerodrome Forecast (TAF)

Issued by National Weather Service (NWS)

                            
000
FTUS42 KKEY 161320 AAA
TAFMTH
TAF AMD
KMTH 161320Z 1613/1712 02010KT P6SM SCT020 SCT200
      TEMPO 1613/1615 BKN035
     FM161500 02008KT P6SM FEW025=